createdAt,value
2023-04-07T01:31:51.972Z,61.97
2023-04-07T01:34:40.371Z,68.53
2023-04-07T01:37:10.616Z,64.57
2023-04-07T01:39:58.874Z,60.72
2023-04-07T01:42:47.847Z,38.83
2023-04-07T01:45:22.479Z,62.80
2023-04-07T01:47:54.149Z,60.60
2023-04-07T01:50:24.427Z,40.80
2023-04-07T01:53:12.175Z,49.40
2023-04-07T01:55:41.689Z,45.13
2023-04-07T01:58:11.452Z,45.45
2023-04-07T02:00:40.972Z,51.97
2023-04-07T02:03:21.554Z,43.20
2023-04-07T02:05:56.929Z,36.67
2023-04-07T02:08:31.175Z,41.38
2023-04-07T02:11:37.863Z,33.75
2023-04-07T02:14:09.277Z,34.92
2023-04-07T02:16:41.600Z,73.28
2023-04-07T02:19:12.664Z,44.55
2023-04-07T02:21:42.492Z,47.92
2023-04-07T02:24:16.278Z,60.88
2023-04-07T02:26:45.470Z,80.55
2023-04-07T02:29:17.736Z,40.08
2023-04-07T02:31:47.057Z,46.95
2023-04-07T02:34:35.954Z,51.03
2023-04-07T02:37:05.242Z,30.60
2023-04-07T02:39:42.126Z,38.65
2023-04-07T02:42:11.314Z,28.77
2023-04-07T02:44:58.971Z,21.88
2023-04-07T02:47:46.228Z,27.25
2023-04-07T02:50:20.401Z,23.90
2023-04-07T02:52:49.563Z,18.88
2023-04-07T02:55:19.083Z,17.40
2023-04-07T02:57:48.264Z,17.60
2023-04-07T03:00:18.594Z,41.88
2023-04-07T03:02:49.093Z,55.90
2023-04-07T03:05:20.322Z,21.35
2023-04-07T03:08:06.512Z,33.15
2023-04-07T03:10:43.600Z,27.13
2023-04-07T03:13:16.904Z,19.58
2023-04-07T03:15:49.222Z,18.08
2023-04-07T03:18:36.755Z,16.23
2023-04-07T03:21:07.358Z,14.82
2023-04-07T03:24:00.967Z,18.30
2023-04-07T03:26:49.987Z,22.40
2023-04-07T03:29:38.566Z,21.48
2023-04-07T03:32:10.641Z,16.42
2023-04-07T03:34:50.870Z,18.75
2023-04-07T03:37:24.607Z,15.48
2023-04-07T03:40:11.692Z,16.38
2023-04-07T03:42:45.348Z,33.33
2023-04-07T03:45:15.119Z,18.92
2023-04-07T03:51:11.655Z,16.98
2023-04-07T03:53:44.415Z,14.02
2023-04-07T03:56:17.476Z,14.70
2023-04-07T03:58:47.210Z,18.70
2023-04-07T04:01:51.798Z,25.85
2023-04-07T04:04:27.111Z,28.02
2023-04-07T04:07:33.105Z,24.70
2023-04-07T04:10:03.788Z,17.48
2023-04-07T04:12:33.063Z,17.17
2023-04-07T04:15:03.680Z,25.02
2023-04-07T04:17:32.985Z,31.52
2023-04-07T04:20:02.251Z,24.88
2023-04-07T04:22:31.598Z,27.17
2023-04-07T04:25:03.100Z,28.85
2023-04-07T04:27:32.333Z,28.65
2023-04-07T04:30:01.551Z,31.63
2023-04-07T04:32:30.747Z,28.88
2023-04-07T04:35:05.427Z,31.02
2023-04-07T04:37:35.878Z,31.27
2023-04-07T04:40:08.911Z,38.33
2023-04-07T04:42:38.436Z,34.10
2023-04-07T04:45:08.901Z,32.20
2023-04-07T04:47:56.574Z,48.88
2023-04-07T04:50:25.855Z,40.90
2023-04-07T04:52:55.102Z,47.75
2023-04-07T04:55:26.175Z,69.32
2023-04-07T04:58:13.500Z,55.13
2023-04-07T05:01:02.229Z,68.22
2023-04-07T05:03:31.931Z,79.78
2023-04-07T05:06:03.309Z,51.65
2023-04-07T05:08:32.768Z,36.45
2023-04-07T05:11:03.692Z,51.85
2023-04-07T05:13:32.903Z,72.35
2023-04-07T05:16:03.222Z,54.10
2023-04-07T05:18:32.456Z,45.40
2023-04-07T05:21:02.697Z,47.97
2023-04-07T05:23:32.067Z,36.10
2023-04-07T05:26:04.876Z,24.02
2023-04-07T05:28:34.203Z,28.05
2023-04-07T05:31:04.568Z,34.80
2023-04-07T05:33:53.103Z,30.77
2023-04-07T05:36:22.740Z,29.33
2023-04-07T05:39:10.438Z,30.10
2023-04-07T05:41:41.105Z,40.53
2023-04-07T05:44:10.749Z,26.90
2023-04-07T05:46:40.231Z,29.30
2023-04-07T05:49:19.778Z,34.38
2023-04-07T05:51:49.816Z,32.53
2023-04-07T05:54:19.064Z,34.67
2023-04-07T05:56:49.879Z,30.65
2023-04-07T05:59:19.160Z,26.95
2023-04-07T06:02:05.568Z,30.48
2023-04-07T06:04:51.988Z,33.58
2023-04-07T06:07:21.211Z,36.88
2023-04-07T06:09:50.557Z,33.55
2023-04-07T06:12:52.656Z,28.55
2023-04-07T06:15:41.780Z,35.78
2023-04-07T06:18:29.256Z,57.33
2023-04-07T06:21:15.241Z,29.75
2023-04-07T06:24:02.514Z,40.47
2023-04-07T06:26:49.481Z,59.17
2023-04-07T06:29:18.777Z,47.35
2023-04-07T06:31:49.514Z,30.05
2023-04-07T06:34:21.959Z,30.67
2023-04-07T06:36:54.085Z,27.80
2023-04-07T06:39:42.225Z,24.67
2023-04-07T06:42:11.541Z,35.80
2023-04-07T06:44:58.073Z,18.55
2023-04-07T06:47:31.629Z,30.67
2023-04-07T06:50:02.603Z,12.70
2023-04-07T06:52:32.028Z,26.38
2023-04-07T06:55:18.394Z,107.00
2023-04-07T06:57:47.713Z,24.80
2023-04-07T07:00:17.465Z,37.75
2023-04-07T07:02:48.379Z,17.25
2023-04-07T07:05:20.774Z,17.55
2023-04-07T07:07:54.172Z,22.35
2023-04-07T07:10:41.680Z,16.05
2023-04-07T07:13:14.915Z,17.23
2023-04-07T07:15:47.482Z,23.75
2023-04-07T07:18:48.949Z,21.85
2023-04-07T07:21:35.939Z,18.30
2023-04-07T07:24:29.919Z,20.05
2023-04-07T07:26:59.384Z,9.05
2023-04-07T07:29:30.235Z,9.68
2023-04-07T07:32:22.580Z,11.38
2023-04-07T07:34:58.332Z,10.85
2023-04-07T07:37:28.484Z,8.43
2023-04-07T07:40:03.430Z,14.02
2023-04-07T07:42:32.913Z,11.97
2023-04-07T07:45:19.199Z,17.58
2023-04-07T07:47:48.765Z,11.05
2023-04-07T07:50:19.664Z,21.25
2023-04-07T07:53:09.323Z,12.02
2023-04-07T07:56:19.502Z,9.27
2023-04-07T07:58:48.813Z,12.60
2023-04-07T08:01:18.006Z,14.68
2023-04-07T08:03:53.291Z,9.95
2023-04-07T08:06:24.692Z,8.13
2023-04-07T08:09:12.260Z,14.27
2023-04-07T08:11:42.061Z,12.02
2023-04-07T08:14:11.603Z,12.05
2023-04-07T08:16:41.055Z,10.18
2023-04-07T08:19:28.482Z,12.13
2023-04-07T08:22:06.842Z,18.45
2023-04-07T08:24:37.499Z,10.57
2023-04-07T08:27:13.916Z,17.80
2023-04-07T08:29:43.192Z,12.43
2023-04-07T08:32:12.567Z,16.65
2023-04-07T08:34:41.923Z,11.55
2023-04-07T08:37:17.721Z,8.35
2023-04-07T08:40:04.231Z,9.32
2023-04-07T08:42:35.042Z,24.98
2023-04-07T08:45:08.716Z,13.63
2023-04-07T08:47:39.944Z,9.70
2023-04-07T08:50:18.585Z,18.23
2023-04-07T08:52:55.315Z,6.55
2023-04-07T08:55:43.080Z,11.57
2023-04-07T08:58:14.049Z,10.52
